Simge Aksoy — 9HBV9 — position and weather

sailwx.info

Track history (hours):
 
Tides and Currents Weather Stations Pressure Air Temp Water Temp Dewpoint Dewpoint Depression Visibility Wind Speed Wind Dir Waves Ship Positions

Simge Aksoy

Last reported at 2018-Jul-20 22:47 UTC. Time now 2018-Jul-22 02:59 UTC.
Position N 46°06' E 031°16'.

Length 190 m; draft 6.8 m.

Type: Cargo ship. MMSI: 256761000.

Date/timePositionNaut miles runAvg speedWind from/ knotsBaromVisibWave heightAir tempDewpointWater temp
2018-Jul-20 22:47N 46°06' E 031°16'412.8
2018-Jul-20 22:26N 46°10' E 031°14'612.8
2018-Jul-20 22:00N 46°15' E 031°10'612.0
2018-Jul-20 21:30N 46°21' E 031°07'1 0.9
2018-Jul-20 20:49N 46°21' E 031°07'0 0.0
2018-Jul-20 20:21N 46°21' E 031°07'0 0.0
2018-Jul-20 20:00N 46°21' E 031°07'0 0.0
2018-Jul-19 20:48N 46°22' E 031°07'0 0.0
2018-Jul-19 20:29N 46°22' E 031°07'0 0.0
2018-Jul-19 18:50N 46°22' E 031°07'0 0.0
2018-Jul-19 18:29N 46°22' E 031°07'0 0.0
2018-Jul-19 17:58N 46°22' E 031°07'0 0.0
2018-Jul-19 17:28N 46°22' E 031°07'0 0.0
2018-Jul-19 14:54N 46°22' E 031°07'0 0.0
2018-Jul-19 13:45N 46°22' E 031°07'0 0.0
2018-Jul-19 13:26N 46°22' E 031°07'0 0.0
2018-Jul-19 12:08N 46°22' E 031°07'0 0.1
2018-Jul-19 11:56N 46°22' E 031°07'0 0.0
2018-Jul-19 10:25N 46°22' E 031°07'0 0.0
2018-Jul-19 09:58N 46°22' E 031°07'0 0.0
2018-Jul-19 07:36N 46°22' E 031°07'0 0.0
2018-Jul-19 05:35N 46°22' E 031°07'0 0.0
2018-Jul-19 05:08N 46°22' E 031°07'0 0.0
2018-Jul-19 04:59N 46°22' E 031°07'0 0.0
2018-Jul-19 04:10N 46°22' E 031°07'0 0.1
2018-Jul-19 03:52N 46°22' E 031°07'0 0.0
2018-Jul-18 22:23N 46°21' E 031°07'0 0.0
2018-Jul-18 04:13N 46°22' E 031°07'0 0.0
2018-Jul-18 03:58N 46°22' E 031°07'0 0.0
2018-Jul-18 03:28N 46°22' E 031°07'0 0.0
2018-Jul-17 22:38N 46°22' E 031°07'0 0.0
2018-Jul-17 20:28N 46°22' E 031°07'0 0.0
2018-Jul-17 19:43N 46°22' E 031°07'0 0.0
2018-Jul-17 14:11N 46°22' E 031°07'0 0.7
2018-Jul-17 14:00N 46°22' E 031°07'0 0.0
2018-Jul-17 13:24N 46°22' E 031°07'0 0.0
2018-Jul-17 12:58N 46°22' E 031°07'0 0.0
2018-Jul-17 12:25N 46°22' E 031°07'0 0.1
2018-Jul-17 12:00N 46°22' E 031°07'0 0.0
2018-Jul-17 11:25N 46°22' E 031°07'0 0.0
2018-Jul-17 10:59N 46°22' E 031°07'6 5.9
2018-Jul-17 09:54N 46°23' E 030°58'510.4
2018-Jul-17 09:24N 46°28' E 030°55'411.1
2018-Jul-17 09:00N 46°32' E 030°56'5 8.9
2018-Jul-17 08:29N 46°34' E 031°02'510.6
2018-Jul-17 08:00N 46°35' E 031°10'3011.0
2018-Jul-17 05:15N 46°38' E 031°54'510.7
2018-Jul-17 04:45N 46°43' E 031°56'2 9.2
2018-Jul-17 04:30N 46°45' E 031°55'2 3.7
2018-Jul-17 04:00N 46°46' E 031°57'0 0.1
2018-Jul-17 03:30N 46°46' E 031°57'0 0.0
2018-Jul-17 02:56N 46°46' E 031°57'0 0.0
2018-Jul-17 02:29N 46°46' E 031°57'0 0.0
2018-Jul-17 01:59N 46°46' E 031°57'0 0.0
2018-Jul-17 01:29N 46°46' E 031°57'0 0.0
2018-Jul-17 00:53N 46°46' E 031°57'0 0.0
2018-Jul-17 00:28N 46°46' E 031°57'0 0.0
2018-Jul-16 23:28N 46°46' E 031°57'0 0.0
2018-Jul-16 22:58N 46°46' E 031°57'0 0.0
2018-Jul-16 22:31N 46°46' E 031°57'0 0.0
2018-Jul-16 22:00N 46°46' E 031°57'0 0.0
2018-Jul-16 21:27N 46°46' E 031°57'0 0.0
2018-Jul-16 21:00N 46°46' E 031°57'0 0.0
2018-Jul-16 20:30N 46°46' E 031°57'0 0.0
2018-Jul-16 19:59N 46°46' E 031°57'0 0.0
2018-Jul-16 19:29N 46°46' E 031°57'0 0.0
2018-Jul-16 18:56N 46°46' E 031°57'0 0.0
2018-Jul-16 18:23N 46°46' E 031°57'0 0.0
2018-Jul-16 17:56N 46°46' E 031°57'0 0.0
2018-Jul-16 17:28N 46°46' E 031°57'0 0.0
2018-Jul-16 16:58N 46°46' E 031°57'0 0.0
2018-Jul-16 16:28N 46°46' E 031°57'0 0.0
2018-Jul-16 15:58N 46°46' E 031°57'0 0.0
2018-Jul-16 15:27N 46°46' E 031°57'0 0.0
2018-Jul-16 15:00N 46°46' E 031°57'0 0.0
2018-Jul-16 14:30N 46°46' E 031°57'0 0.0
2018-Jul-16 13:51N 46°46' E 031°57'0 0.0
2018-Jul-16 13:24N 46°46' E 031°57'0 0.0
2018-Jul-16 12:26N 46°46' E 031°57'0 0.0
2018-Jul-16 11:29N 46°46' E 031°57'0 0.0
2018-Jul-16 10:58N 46°46' E 031°57'0 0.0
2018-Jul-16 10:25N 46°46' E 031°57'0 0.0
2018-Jul-16 09:58N 46°46' E 031°57'0 0.0
2018-Jul-16 09:25N 46°46' E 031°57'0 0.0
2018-Jul-16 08:55N 46°46' E 031°57'0 0.0
2018-Jul-16 06:42N 46°46' E 031°57'0 0.0
2018-Jul-16 06:27N 46°46' E 031°57'0 0.0
2018-Jul-16 05:59N 46°46' E 031°57'0 0.0
2018-Jul-16 05:29N 46°46' E 031°57'0 0.0
2018-Jul-16 04:59N 46°46' E 031°57'0 0.0
2018-Jul-16 04:26N 46°46' E 031°57'0 0.0
2018-Jul-16 03:59N 46°46' E 031°57'0 0.0
2018-Jul-16 03:28N 46°46' E 031°57'0 0.0
2018-Jul-16 02:58N 46°46' E 031°57'0 0.0
2018-Jul-16 02:28N 46°46' E 031°57'0 0.0
2018-Jul-16 01:58N 46°46' E 031°57'0 0.0
2018-Jul-15 22:35N 46°46' E 031°57'0 0.0
2018-Jul-15 22:11N 46°46' E 031°57'0 0.0
2018-Jul-15 21:44N 46°46' E 031°57'0 0.0
2018-Jul-15 18:49N 46°46' E 031°57'0 0.0
2018-Jul-15 17:30N 46°46' E 031°57'0 0.0
2018-Jul-15 16:48N 46°46' E 031°57'0 0.0
2018-Jul-15 16:11N 46°46' E 031°57'0 0.0
2018-Jul-15 15:53N 46°46' E 031°57'0 0.0
2018-Jul-15 15:29N 46°46' E 031°57'0 0.0
2018-Jul-15 14:59N 46°46' E 031°57'0 0.0
2018-Jul-15 14:30N 46°46' E 031°57'0 0.0
2018-Jul-15 13:59N 46°46' E 031°57'0 0.0
2018-Jul-15 13:28N 46°46' E 031°57'0 0.0
2018-Jul-15 12:58N 46°46' E 031°57'0 0.0
2018-Jul-15 12:28N 46°46' E 031°57'0 0.0
2018-Jul-15 11:58N 46°46' E 031°57'0 0.0
2018-Jul-15 11:28N 46°46' E 031°57'0 0.0
2018-Jul-15 11:00N 46°46' E 031°57'0 0.0
2018-Jul-15 10:30N 46°46' E 031°57'1 2.3
2018-Jul-15 10:00N 46°45' E 031°56'1 2.8
2018-Jul-15 09:30N 46°44' E 031°56'3 6.2
2018-Jul-15 09:00N 46°41' E 031°56'27 9.0
2018-Jul-15 06:02N 46°35' E 031°18'111.3
2018-Jul-15 05:59N 46°35' E 031°17'511.2
2018-Jul-15 05:29N 46°35' E 031°09'510.4
2018-Jul-15 05:00N 46°34' E 031°02'4 6.9
2018-Jul-15 04:29N 46°32' E 030°57'3 7.0
2018-Jul-15 04:00N 46°29' E 030°57'5 9.3
2018-Jul-15 03:30N 46°24' E 030°57'5 9.9
2018-Jul-15 02:59N 46°19' E 030°57'17811.3
2018-Jul-14 11:13N 43°25' E 030°04'511.5
2018-Jul-14 10:49N 43°20' E 030°02'411.5
2018-Jul-14 10:29N 43°17' E 030°01'611.4
2018-Jul-14 10:00N 43°11' E 029°59'  
Track history (hours):
 
Tides and Currents Weather Stations Pressure Air Temp Water Temp Dewpoint Dewpoint Depression Visibility Wind Speed Wind Dir Waves Ship Positions

Simge Aksoy

Last reported at 2018-Jul-20 22:47 UTC. Time now 2018-Jul-22 02:59 UTC.
Position N 46°06' E 031°16'.

Length 190 m; draft 6.8 m.

Type: Cargo ship. MMSI: 256761000.

Date/timePositionNaut miles runAvg speedWind from/ knotsBaromVisibWave heightAir tempDewpointWater temp
2018-Jul-20 22:47N 46°06' E 031°16'412.8
2018-Jul-20 22:26N 46°10' E 031°14'612.8
2018-Jul-20 22:00N 46°15' E 031°10'612.0
2018-Jul-20 21:30N 46°21' E 031°07'1 0.9
2018-Jul-20 20:49N 46°21' E 031°07'0 0.0
2018-Jul-20 20:21N 46°21' E 031°07'0 0.0
2018-Jul-20 20:00N 46°21' E 031°07'0 0.0
2018-Jul-19 20:48N 46°22' E 031°07'0 0.0
2018-Jul-19 20:29N 46°22' E 031°07'0 0.0
2018-Jul-19 18:50N 46°22' E 031°07'0 0.0
2018-Jul-19 18:29N 46°22' E 031°07'0 0.0
2018-Jul-19 17:58N 46°22' E 031°07'0 0.0
2018-Jul-19 17:28N 46°22' E 031°07'0 0.0
2018-Jul-19 14:54N 46°22' E 031°07'0 0.0
2018-Jul-19 13:45N 46°22' E 031°07'0 0.0
2018-Jul-19 13:26N 46°22' E 031°07'0 0.0
2018-Jul-19 12:08N 46°22' E 031°07'0 0.1
2018-Jul-19 11:56N 46°22' E 031°07'0 0.0
2018-Jul-19 10:25N 46°22' E 031°07'0 0.0
2018-Jul-19 09:58N 46°22' E 031°07'0 0.0
2018-Jul-19 07:36N 46°22' E 031°07'0 0.0
2018-Jul-19 05:35N 46°22' E 031°07'0 0.0
2018-Jul-19 05:08N 46°22' E 031°07'0 0.0
2018-Jul-19 04:59N 46°22' E 031°07'0 0.0
2018-Jul-19 04:10N 46°22' E 031°07'0 0.1
2018-Jul-19 03:52N 46°22' E 031°07'0 0.0
2018-Jul-18 22:23N 46°21' E 031°07'0 0.0
2018-Jul-18 04:13N 46°22' E 031°07'0 0.0
2018-Jul-18 03:58N 46°22' E 031°07'0 0.0
2018-Jul-18 03:28N 46°22' E 031°07'0 0.0
2018-Jul-17 22:38N 46°22' E 031°07'0 0.0
2018-Jul-17 20:28N 46°22' E 031°07'0 0.0
2018-Jul-17 19:43N 46°22' E 031°07'0 0.0
2018-Jul-17 14:11N 46°22' E 031°07'0 0.7
2018-Jul-17 14:00N 46°22' E 031°07'0 0.0
2018-Jul-17 13:24N 46°22' E 031°07'0 0.0
2018-Jul-17 12:58N 46°22' E 031°07'0 0.0
2018-Jul-17 12:25N 46°22' E 031°07'0 0.1
2018-Jul-17 12:00N 46°22' E 031°07'0 0.0
2018-Jul-17 11:25N 46°22' E 031°07'0 0.0
2018-Jul-17 10:59N 46°22' E 031°07'6 5.9
2018-Jul-17 09:54N 46°23' E 030°58'510.4
2018-Jul-17 09:24N 46°28' E 030°55'411.1
2018-Jul-17 09:00N 46°32' E 030°56'5 8.9
2018-Jul-17 08:29N 46°34' E 031°02'510.6
2018-Jul-17 08:00N 46°35' E 031°10'3011.0
2018-Jul-17 05:15N 46°38' E 031°54'510.7
2018-Jul-17 04:45N 46°43' E 031°56'2 9.2
2018-Jul-17 04:30N 46°45' E 031°55'2 3.7
2018-Jul-17 04:00N 46°46' E 031°57'0 0.1
2018-Jul-17 03:30N 46°46' E 031°57'0 0.0
2018-Jul-17 02:56N 46°46' E 031°57'0 0.0
2018-Jul-17 02:29N 46°46' E 031°57'0 0.0
2018-Jul-17 01:59N 46°46' E 031°57'0 0.0
2018-Jul-17 01:29N 46°46' E 031°57'0 0.0
2018-Jul-17 00:53N 46°46' E 031°57'0 0.0
2018-Jul-17 00:28N 46°46' E 031°57'0 0.0
2018-Jul-16 23:28N 46°46' E 031°57'0 0.0
2018-Jul-16 22:58N 46°46' E 031°57'0 0.0
2018-Jul-16 22:31N 46°46' E 031°57'0 0.0
2018-Jul-16 22:00N 46°46' E 031°57'0 0.0
2018-Jul-16 21:27N 46°46' E 031°57'0 0.0
2018-Jul-16 21:00N 46°46' E 031°57'0 0.0
2018-Jul-16 20:30N 46°46' E 031°57'0 0.0
2018-Jul-16 19:59N 46°46' E 031°57'0 0.0
2018-Jul-16 19:29N 46°46' E 031°57'0 0.0
2018-Jul-16 18:56N 46°46' E 031°57'0 0.0
2018-Jul-16 18:23N 46°46' E 031°57'0 0.0
2018-Jul-16 17:56N 46°46' E 031°57'0 0.0
2018-Jul-16 17:28N 46°46' E 031°57'0 0.0
2018-Jul-16 16:58N 46°46' E 031°57'0 0.0
2018-Jul-16 16:28N 46°46' E 031°57'0 0.0
2018-Jul-16 15:58N 46°46' E 031°57'0 0.0
2018-Jul-16 15:27N 46°46' E 031°57'0 0.0
2018-Jul-16 15:00N 46°46' E 031°57'0 0.0
2018-Jul-16 14:30N 46°46' E 031°57'0 0.0
2018-Jul-16 13:51N 46°46' E 031°57'0 0.0
2018-Jul-16 13:24N 46°46' E 031°57'0 0.0
2018-Jul-16 12:26N 46°46' E 031°57'0 0.0
2018-Jul-16 11:29N 46°46' E 031°57'0 0.0
2018-Jul-16 10:58N 46°46' E 031°57'0 0.0
2018-Jul-16 10:25N 46°46' E 031°57'0 0.0
2018-Jul-16 09:58N 46°46' E 031°57'0 0.0
2018-Jul-16 09:25N 46°46' E 031°57'0 0.0
2018-Jul-16 08:55N 46°46' E 031°57'0 0.0
2018-Jul-16 06:42N 46°46' E 031°57'0 0.0
2018-Jul-16 06:27N 46°46' E 031°57'0 0.0
2018-Jul-16 05:59N 46°46' E 031°57'0 0.0
2018-Jul-16 05:29N 46°46' E 031°57'0 0.0
2018-Jul-16 04:59N 46°46' E 031°57'0 0.0
2018-Jul-16 04:26N 46°46' E 031°57'0 0.0
2018-Jul-16 03:59N 46°46' E 031°57'0 0.0
2018-Jul-16 03:28N 46°46' E 031°57'0 0.0
2018-Jul-16 02:58N 46°46' E 031°57'0 0.0
2018-Jul-16 02:28N 46°46' E 031°57'0 0.0
2018-Jul-16 01:58N 46°46' E 031°57'0 0.0
2018-Jul-15 22:35N 46°46' E 031°57'0 0.0
2018-Jul-15 22:11N 46°46' E 031°57'0 0.0
2018-Jul-15 21:44N 46°46' E 031°57'0 0.0
2018-Jul-15 18:49N 46°46' E 031°57'0 0.0
2018-Jul-15 17:30N 46°46' E 031°57'0 0.0
2018-Jul-15 16:48N 46°46' E 031°57'0 0.0
2018-Jul-15 16:11N 46°46' E 031°57'0 0.0
2018-Jul-15 15:53N 46°46' E 031°57'0 0.0
2018-Jul-15 15:29N 46°46' E 031°57'0 0.0
2018-Jul-15 14:59N 46°46' E 031°57'0 0.0
2018-Jul-15 14:30N 46°46' E 031°57'0 0.0
2018-Jul-15 13:59N 46°46' E 031°57'0 0.0
2018-Jul-15 13:28N 46°46' E 031°57'0 0.0
2018-Jul-15 12:58N 46°46' E 031°57'0 0.0
2018-Jul-15 12:28N 46°46' E 031°57'0 0.0
2018-Jul-15 11:58N 46°46' E 031°57'0 0.0
2018-Jul-15 11:28N 46°46' E 031°57'0 0.0
2018-Jul-15 11:00N 46°46' E 031°57'0 0.0
2018-Jul-15 10:30N 46°46' E 031°57'1 2.3
2018-Jul-15 10:00N 46°45' E 031°56'1 2.8
2018-Jul-15 09:30N 46°44' E 031°56'3 6.2
2018-Jul-15 09:00N 46°41' E 031°56'27 9.0
2018-Jul-15 06:02N 46°35' E 031°18'111.3
2018-Jul-15 05:59N 46°35' E 031°17'511.2
2018-Jul-15 05:29N 46°35' E 031°09'510.4
2018-Jul-15 05:00N 46°34' E 031°02'4 6.9
2018-Jul-15 04:29N 46°32' E 030°57'3 7.0
2018-Jul-15 04:00N 46°29' E 030°57'5 9.3
2018-Jul-15 03:30N 46°24' E 030°57'5 9.9
2018-Jul-15 02:59N 46°19' E 030°57'17811.3
2018-Jul-14 11:13N 43°25' E 030°04'511.5
2018-Jul-14 10:49N 43°20' E 030°02'411.5
2018-Jul-14 10:29N 43°17' E 030°01'611.4
2018-Jul-14 10:00N 43°11' E 029°59'  

Dump ship's entire track history